sensor_id;sensor_type;location;lat;lon;timestamp;temperature;humidity
12959;DHT22;6544;51.666;6.634;2023-07-31T00:01:57;16.70;1.00
12959;DHT22;6544;51.666;6.634;2023-07-31T00:04:24;16.70;1.00
12959;DHT22;6544;51.666;6.634;2023-07-31T00:06:51;16.60;1.00
12959;DHT22;6544;51.666;6.634;2023-07-31T00:09:18;16.50;1.00
12959;DHT22;6544;51.666;6.634;2023-07-31T00:11:46;16.40;1.00
12959;DHT22;6544;51.666;6.634;2023-07-31T00:14:13;16.40;1.00
12959;DHT22;6544;51.666;6.634;2023-07-31T00:16:40;16.30;99.90
12959;DHT22;6544;51.666;6.634;2023-07-31T00:19:07;16.20;1.00
12959;DHT22;6544;51.666;6.634;2023-07-31T00:21:34;16.20;99.90
12959;DHT22;6544;51.666;6.634;2023-07-31T00:24:01;16.20;99.90
12959;DHT22;6544;51.666;6.634;2023-07-31T00:26:28;16.30;99.90
12959;DHT22;6544;51.666;6.634;2023-07-31T00:28:56;16.30;1.00
12959;DHT22;6544;51.666;6.634;2023-07-31T00:31:23;16.30;1.00
12959;DHT22;6544;51.666;6.634;2023-07-31T00:33:49;16.30;99.90
12959;DHT22;6544;51.666;6.634;2023-07-31T00:36:16;16.40;99.90
12959;DHT22;6544;51.666;6.634;2023-07-31T00:38:44;16.40;99.90
12959;DHT22;6544;51.666;6.634;2023-07-31T00:41:11;16.40;99.90
12959;DHT22;6544;51.666;6.634;2023-07-31T00:43:38;16.50;99.90
12959;DHT22;6544;51.666;6.634;2023-07-31T00:46:06;16.50;99.90
12959;DHT22;6544;51.666;6.634;2023-07-31T00:48:34;16.60;99.90
12959;DHT22;6544;51.666;6.634;2023-07-31T00:51:01;16.60;99.90
12959;DHT22;6544;51.666;6.634;2023-07-31T00:53:28;16.60;99.90
12959;DHT22;6544;51.666;6.634;2023-07-31T00:55:56;16.60;99.90
12959;DHT22;6544;51.666;6.634;2023-07-31T00:58:23;16.70;99.90
12959;DHT22;6544;51.666;6.634;2023-07-31T01:00:50;16.70;99.90
12959;DHT22;6544;51.666;6.634;2023-07-31T01:03:18;16.70;99.90
12959;DHT22;6544;51.666;6.634;2023-07-31T01:05:52;16.70;99.90
12959;DHT22;6544;51.666;6.634;2023-07-31T01:08:28;16.60;99.90
12959;DHT22;6544;51.666;6.634;2023-07-31T01:11:02;16.60;99.90
12959;DHT22;6544;51.666;6.634;2023-07-31T01:13:30;16.80;97.90
12959;DHT22;6544;51.666;6.634;2023-07-31T01:15:57;16.90;1.00
12959;DHT22;6544;51.666;6.634;2023-07-31T01:18:25;16.70;1.00
12959;DHT22;6544;51.666;6.634;2023-07-31T01:20:57;16.80;1.00
12959;DHT22;6544;51.666;6.634;2023-07-31T01:23:51;16.80;1.00
12959;DHT22;6544;51.666;6.634;2023-07-31T01:26:24;16.80;99.90
12959;DHT22;6544;51.666;6.634;2023-07-31T01:28:56;16.90;99.90
12959;DHT22;6544;51.666;6.634;2023-07-31T01:31:25;16.90;1.00
12959;DHT22;6544;51.666;6.634;2023-07-31T01:33:54;17.00;99.90
12959;DHT22;6544;51.666;6.634;2023-07-31T01:36:23;17.00;99.90
12959;DHT22;6544;51.666;6.634;2023-07-31T01:38:50;16.90;1.00
12959;DHT22;6544;51.666;6.634;2023-07-31T01:41:17;16.90;1.00
12959;DHT22;6544;51.666;6.634;2023-07-31T01:43:46;16.90;1.00
12959;DHT22;6544;51.666;6.634;2023-07-31T01:46:13;16.80;1.00
12959;DHT22;6544;51.666;6.634;2023-07-31T01:48:40;16.80;1.00
12959;DHT22;6544;51.666;6.634;2023-07-31T01:51:07;16.80;1.00
12959;DHT22;6544;51.666;6.634;2023-07-31T01:53:33;16.90;99.90
12959;DHT22;6544;51.666;6.634;2023-07-31T01:56:00;16.90;1.00
12959;DHT22;6544;51.666;6.634;2023-07-31T01:58:27;16.90;1.00
12959;DHT22;6544;51.666;6.634;2023-07-31T02:00:56;16.90;99.90
12959;DHT22;6544;51.666;6.634;2023-07-31T02:03:23;16.90;99.90
12959;DHT22;6544;51.666;6.634;2023-07-31T02:05:50;16.80;1.00
12959;DHT22;6544;51.666;6.634;2023-07-31T02:08:16;16.80;1.00
12959;DHT22;6544;51.666;6.634;2023-07-31T02:10:43;16.80;1.00
12959;DHT22;6544;51.666;6.634;2023-07-31T02:13:10;16.80;99.90
12959;DHT22;6544;51.666;6.634;2023-07-31T02:15:37;16.80;99.90
12959;DHT22;6544;51.666;6.634;2023-07-31T02:18:08;16.80;1.00
12959;DHT22;6544;51.666;6.634;2023-07-31T02:20:35;16.80;1.00
12959;DHT22;6544;51.666;6.634;2023-07-31T02:23:02;16.80;1.00
12959;DHT22;6544;51.666;6.634;2023-07-31T02:25:29;16.80;99.90
12959;DHT22;6544;51.666;6.634;2023-07-31T02:27:56;16.80;1.00
12959;DHT22;6544;51.666;6.634;2023-07-31T02:30:23;16.80;1.00
12959;DHT22;6544;51.666;6.634;2023-07-31T02:32:50;16.90;99.90
12959;DHT22;6544;51.666;6.634;2023-07-31T02:35:18;16.90;99.90
12959;DHT22;6544;51.666;6.634;2023-07-31T02:37:45;16.80;99.90
12959;DHT22;6544;51.666;6.634;2023-07-31T02:40:12;16.70;99.90
12959;DHT22;6544;51.666;6.634;2023-07-31T02:42:39;16.70;99.90
12959;DHT22;6544;51.666;6.634;2023-07-31T02:45:07;16.70;21.30
12959;DHT22;6544;51.666;6.634;2023-07-31T02:47:34;16.70;99.90
12959;DHT22;6544;51.666;6.634;2023-07-31T02:50:01;16.70;99.90
12959;DHT22;6544;51.666;6.634;2023-07-31T02:52:29;16.60;1.00
12959;DHT22;6544;51.666;6.634;2023-07-31T02:54:57;16.70;99.90
12959;DHT22;6544;51.666;6.634;2023-07-31T02:57:24;16.70;99.90
12959;DHT22;6544;51.666;6.634;2023-07-31T02:59:51;16.70;1.00
12959;DHT22;6544;51.666;6.634;2023-07-31T03:02:18;16.70;1.00
12959;DHT22;6544;51.666;6.634;2023-07-31T03:04:45;16.70;1.00
12959;DHT22;6544;51.666;6.634;2023-07-31T03:07:12;16.70;1.00
12959;DHT22;6544;51.666;6.634;2023-07-31T03:09:40;16.70;1.00
12959;DHT22;6544;51.666;6.634;2023-07-31T03:12:08;16.70;1.00
12959;DHT22;6544;51.666;6.634;2023-07-31T03:14:35;16.70;1.00
12959;DHT22;6544;51.666;6.634;2023-07-31T03:17:02;16.70;1.00
12959;DHT22;6544;51.666;6.634;2023-07-31T03:19:31;16.70;1.00
12959;DHT22;6544;51.666;6.634;2023-07-31T03:21:58;16.60;1.00
12959;DHT22;6544;51.666;6.634;2023-07-31T03:24:25;16.70;1.00
12959;DHT22;6544;51.666;6.634;2023-07-31T03:26:53;16.60;1.00
12959;DHT22;6544;51.666;6.634;2023-07-31T03:29:20;16.60;1.00
12959;DHT22;6544;51.666;6.634;2023-07-31T03:31:47;16.60;1.00
12959;DHT22;6544;51.666;6.634;2023-07-31T03:34:14;16.60;1.00
12959;DHT22;6544;51.666;6.634;2023-07-31T03:36:41;16.70;99.90
12959;DHT22;6544;51.666;6.634;2023-07-31T03:39:08;16.70;99.90
12959;DHT22;6544;51.666;6.634;2023-07-31T03:41:35;16.70;99.90
12959;DHT22;6544;51.666;6.634;2023-07-31T03:44:03;16.70;99.90
12959;DHT22;6544;51.666;6.634;2023-07-31T03:46:30;16.60;99.90
12959;DHT22;6544;51.666;6.634;2023-07-31T03:48:57;16.50;1.00
12959;DHT22;6544;51.666;6.634;2023-07-31T03:51:24;16.60;99.90
12959;DHT22;6544;51.666;6.634;2023-07-31T03:53:51;16.70;99.90
12959;DHT22;6544;51.666;6.634;2023-07-31T03:56:18;16.70;99.90
12959;DHT22;6544;51.666;6.634;2023-07-31T03:58:45;16.70;99.90
12959;DHT22;6544;51.666;6.634;2023-07-31T04:01:13;16.70;99.90
12959;DHT22;6544;51.666;6.634;2023-07-31T04:03:40;16.70;99.90
12959;DHT22;6544;51.666;6.634;2023-07-31T04:06:07;16.70;99.90
12959;DHT22;6544;51.666;6.634;2023-07-31T04:08:34;16.80;99.90
12959;DHT22;6544;51.666;6.634;2023-07-31T04:11:01;16.70;99.90
12959;DHT22;6544;51.666;6.634;2023-07-31T04:13:29;16.70;99.90
12959;DHT22;6544;51.666;6.634;2023-07-31T04:15:56;16.80;99.90
12959;DHT22;6544;51.666;6.634;2023-07-31T04:18:24;16.80;99.90
12959;DHT22;6544;51.666;6.634;2023-07-31T04:20:51;16.90;99.90
12959;DHT22;6544;51.666;6.634;2023-07-31T04:23:18;16.70;99.90
12959;DHT22;6544;51.666;6.634;2023-07-31T04:25:45;16.70;99.90
12959;DHT22;6544;51.666;6.634;2023-07-31T04:28:12;16.80;99.90
12959;DHT22;6544;51.666;6.634;2023-07-31T04:30:39;16.80;99.90
12959;DHT22;6544;51.666;6.634;2023-07-31T04:33:06;16.80;99.90
12959;DHT22;6544;51.666;6.634;2023-07-31T04:35:34;16.90;99.90
12959;DHT22;6544;51.666;6.634;2023-07-31T04:38:01;16.90;99.90
12959;DHT22;6544;51.666;6.634;2023-07-31T04:40:28;16.90;99.90
12959;DHT22;6544;51.666;6.634;2023-07-31T04:42:55;16.90;99.90
12959;DHT22;6544;51.666;6.634;2023-07-31T04:45:22;16.80;99.90
12959;DHT22;6544;51.666;6.634;2023-07-31T04:47:48;16.90;99.90
12959;DHT22;6544;51.666;6.634;2023-07-31T04:50:15;16.90;99.90
12959;DHT22;6544;51.666;6.634;2023-07-31T04:52:43;16.90;99.90
12959;DHT22;6544;51.666;6.634;2023-07-31T04:55:11;17.00;99.90
12959;DHT22;6544;51.666;6.634;2023-07-31T04:57:38;17.00;99.90
12959;DHT22;6544;51.666;6.634;2023-07-31T05:00:06;17.10;99.90
12959;DHT22;6544;51.666;6.634;2023-07-31T05:02:33;17.10;99.90
12959;DHT22;6544;51.666;6.634;2023-07-31T05:05:00;17.10;99.90
12959;DHT22;6544;51.666;6.634;2023-07-31T05:07:26;17.10;99.90
12959;DHT22;6544;51.666;6.634;2023-07-31T05:09:55;17.10;99.90
12959;DHT22;6544;51.666;6.634;2023-07-31T05:12:21;17.10;99.90
12959;DHT22;6544;51.666;6.634;2023-07-31T05:14:48;17.10;99.90
12959;DHT22;6544;51.666;6.634;2023-07-31T05:17:15;17.10;99.90
12959;DHT22;6544;51.666;6.634;2023-07-31T05:19:42;17.10;99.90
12959;DHT22;6544;51.666;6.634;2023-07-31T05:22:09;17.20;99.90
12959;DHT22;6544;51.666;6.634;2023-07-31T05:24:36;17.10;99.90
12959;DHT22;6544;51.666;6.634;2023-07-31T05:27:05;17.10;99.90
12959;DHT22;6544;51.666;6.634;2023-07-31T05:29:32;17.10;99.90
12959;DHT22;6544;51.666;6.634;2023-07-31T05:31:59;17.20;99.90
12959;DHT22;6544;51.666;6.634;2023-07-31T05:34:26;17.30;99.90
12959;DHT22;6544;51.666;6.634;2023-07-31T05:36:53;17.20;99.90
12959;DHT22;6544;51.666;6.634;2023-07-31T05:39:20;17.20;99.90
12959;DHT22;6544;51.666;6.634;2023-07-31T05:41:47;17.20;99.90
12959;DHT22;6544;51.666;6.634;2023-07-31T05:44:15;17.30;99.90
12959;DHT22;6544;51.666;6.634;2023-07-31T05:46:42;17.30;99.90
12959;DHT22;6544;51.666;6.634;2023-07-31T05:49:09;17.40;99.90
12959;DHT22;6544;51.666;6.634;2023-07-31T05:51:36;17.30;99.90
12959;DHT22;6544;51.666;6.634;2023-07-31T05:54:03;17.40;99.90
12959;DHT22;6544;51.666;6.634;2023-07-31T05:56:30;17.30;99.90
12959;DHT22;6544;51.666;6.634;2023-07-31T05:58:59;17.40;99.90
12959;DHT22;6544;51.666;6.634;2023-07-31T06:01:27;17.40;99.90
12959;DHT22;6544;51.666;6.634;2023-07-31T06:03:54;17.50;99.90
12959;DHT22;6544;51.666;6.634;2023-07-31T06:06:21;17.40;99.90
12959;DHT22;6544;51.666;6.634;2023-07-31T06:08:47;17.50;99.90
12959;DHT22;6544;51.666;6.634;2023-07-31T06:11:15;17.40;99.90
12959;DHT22;6544;51.666;6.634;2023-07-31T06:13:42;17.40;1.00
12959;DHT22;6544;51.666;6.634;2023-07-31T06:16:10;17.40;1.00
12959;DHT22;6544;51.666;6.634;2023-07-31T06:18:38;17.30;1.00
12959;DHT22;6544;51.666;6.634;2023-07-31T06:21:05;17.30;1.00
12959;DHT22;6544;51.666;6.634;2023-07-31T06:23:32;17.40;1.00
12959;DHT22;6544;51.666;6.634;2023-07-31T06:25:59;17.30;99.20
12959;DHT22;6544;51.666;6.634;2023-07-31T06:28:27;17.30;64.00
12959;DHT22;6544;51.666;6.634;2023-07-31T06:30:55;17.30;99.90
12959;DHT22;6544;51.666;6.634;2023-07-31T06:33:21;17.30;99.90
12959;DHT22;6544;51.666;6.634;2023-07-31T06:35:50;17.20;1.00
12959;DHT22;6544;51.666;6.634;2023-07-31T06:38:21;17.30;1.00
12959;DHT22;6544;51.666;6.634;2023-07-31T06:40:48;17.30;19.00
12959;DHT22;6544;51.666;6.634;2023-07-31T06:43:15;17.30;1.00
12959;DHT22;6544;51.666;6.634;2023-07-31T06:45:42;17.30;99.90
12959;DHT22;6544;51.666;6.634;2023-07-31T06:48:09;17.40;1.00
12959;DHT22;6544;51.666;6.634;2023-07-31T06:50:36;17.40;1.00
12959;DHT22;6544;51.666;6.634;2023-07-31T06:53:04;17.40;99.90
12959;DHT22;6544;51.666;6.634;2023-07-31T06:55:32;17.30;1.00
12959;DHT22;6544;51.666;6.634;2023-07-31T06:57:59;17.30;99.90
12959;DHT22;6544;51.666;6.634;2023-07-31T07:00:27;17.30;1.00
12959;DHT22;6544;51.666;6.634;2023-07-31T07:02:54;17.30;99.90
12959;DHT22;6544;51.666;6.634;2023-07-31T07:05:21;17.30;1.00
12959;DHT22;6544;51.666;6.634;2023-07-31T07:07:49;17.20;1.00
12959;DHT22;6544;51.666;6.634;2023-07-31T07:10:18;17.30;1.00
12959;DHT22;6544;51.666;6.634;2023-07-31T07:12:45;17.30;99.90
12959;DHT22;6544;51.666;6.634;2023-07-31T07:15:12;17.30;99.90
12959;DHT22;6544;51.666;6.634;2023-07-31T07:17:39;17.30;99.90
12959;DHT22;6544;51.666;6.634;2023-07-31T07:20:07;17.30;33.40
12959;DHT22;6544;51.666;6.634;2023-07-31T07:22:37;17.20;1.00
12959;DHT22;6544;51.666;6.634;2023-07-31T07:25:05;17.20;1.00
12959;DHT22;6544;51.666;6.634;2023-07-31T07:27:34;17.20;1.00
12959;DHT22;6544;51.666;6.634;2023-07-31T07:30:01;17.30;1.00
12959;DHT22;6544;51.666;6.634;2023-07-31T07:32:29;17.30;99.90
12959;DHT22;6544;51.666;6.634;2023-07-31T07:34:56;17.30;1.00
12959;DHT22;6544;51.666;6.634;2023-07-31T07:37:23;17.30;1.00
12959;DHT22;6544;51.666;6.634;2023-07-31T07:39:49;17.20;1.00
12959;DHT22;6544;51.666;6.634;2023-07-31T07:42:16;17.20;1.00
12959;DHT22;6544;51.666;6.634;2023-07-31T07:44:45;17.20;99.90
12959;DHT22;6544;51.666;6.634;2023-07-31T07:47:13;17.20;1.00
12959;DHT22;6544;51.666;6.634;2023-07-31T07:49:39;17.20;1.00
12959;DHT22;6544;51.666;6.634;2023-07-31T07:52:07;17.20;7.20
12959;DHT22;6544;51.666;6.634;2023-07-31T07:54:33;17.20;17.00
12959;DHT22;6544;51.666;6.634;2023-07-31T07:57:00;17.20;1.00
12959;DHT22;6544;51.666;6.634;2023-07-31T07:59:27;17.20;1.00
12959;DHT22;6544;51.666;6.634;2023-07-31T08:01:56;17.30;1.00
12959;DHT22;6544;51.666;6.634;2023-07-31T08:04:26;17.30;1.00
12959;DHT22;6544;51.666;6.634;2023-07-31T08:06:53;17.20;99.90
12959;DHT22;6544;51.666;6.634;2023-07-31T08:09:20;17.20;1.00
12959;DHT22;6544;51.666;6.634;2023-07-31T08:11:46;17.20;1.00
12959;DHT22;6544;51.666;6.634;2023-07-31T08:14:13;17.20;99.90
12959;DHT22;6544;51.666;6.634;2023-07-31T08:16:40;17.20;99.90
12959;DHT22;6544;51.666;6.634;2023-07-31T08:19:08;17.20;99.90
12959;DHT22;6544;51.666;6.634;2023-07-31T08:21:35;17.10;99.90
12959;DHT22;6544;51.666;6.634;2023-07-31T08:24:02;17.10;1.00
12959;DHT22;6544;51.666;6.634;2023-07-31T08:26:29;17.10;99.90
12959;DHT22;6544;51.666;6.634;2023-07-31T08:28:56;17.10;99.90
12959;DHT22;6544;51.666;6.634;2023-07-31T08:31:23;17.10;1.00
12959;DHT22;6544;51.666;6.634;2023-07-31T08:33:50;17.10;1.00
12959;DHT22;6544;51.666;6.634;2023-07-31T08:36:18;17.00;1.00
12959;DHT22;6544;51.666;6.634;2023-07-31T08:38:45;17.00;1.00
12959;DHT22;6544;51.666;6.634;2023-07-31T08:41:12;17.10;99.90
12959;DHT22;6544;51.666;6.634;2023-07-31T08:43:39;17.10;99.90
12959;DHT22;6544;51.666;6.634;2023-07-31T08:46:07;17.10;1.00
12959;DHT22;6544;51.666;6.634;2023-07-31T08:48:35;17.10;99.90
12959;DHT22;6544;51.666;6.634;2023-07-31T08:51:06;17.20;1.00
12959;DHT22;6544;51.666;6.634;2023-07-31T08:53:35;17.10;1.00
12959;DHT22;6544;51.666;6.634;2023-07-31T08:56:02;17.10;99.90
12959;DHT22;6544;51.666;6.634;2023-07-31T08:58:32;17.10;99.90
12959;DHT22;6544;51.666;6.634;2023-07-31T09:01:04;17.00;29.70
12959;DHT22;6544;51.666;6.634;2023-07-31T09:03:33;17.00;99.90
12959;DHT22;6544;51.666;6.634;2023-07-31T09:06:02;17.00;1.00
12959;DHT22;6544;51.666;6.634;2023-07-31T09:08:31;17.10;1.00
12959;DHT22;6544;51.666;6.634;2023-07-31T09:11:01;17.10;1.00
12959;DHT22;6544;51.666;6.634;2023-07-31T09:13:29;17.10;1.00
12959;DHT22;6544;51.666;6.634;2023-07-31T09:15:57;17.10;1.00
12959;DHT22;6544;51.666;6.634;2023-07-31T09:18:25;17.00;1.00
12959;DHT22;6544;51.666;6.634;2023-07-31T09:21:01;17.10;99.90
12959;DHT22;6544;51.666;6.634;2023-07-31T09:23:40;17.10;99.90
12959;DHT22;6544;51.666;6.634;2023-07-31T09:26:29;17.10;99.90
12959;DHT22;6544;51.666;6.634;2023-07-31T09:28:56;17.10;99.90
12959;DHT22;6544;51.666;6.634;2023-07-31T09:31:38;17.20;99.90
12959;DHT22;6544;51.666;6.634;2023-07-31T09:34:05;17.20;99.90
12959;DHT22;6544;51.666;6.634;2023-07-31T09:36:32;17.20;94.40
12959;DHT22;6544;51.666;6.634;2023-07-31T09:39:02;17.20;99.90
12959;DHT22;6544;51.666;6.634;2023-07-31T09:41:30;17.20;99.90
12959;DHT22;6544;51.666;6.634;2023-07-31T09:43:57;17.30;99.90
12959;DHT22;6544;51.666;6.634;2023-07-31T09:46:27;17.30;99.90
12959;DHT22;6544;51.666;6.634;2023-07-31T09:49:04;17.30;99.90
12959;DHT22;6544;51.666;6.634;2023-07-31T09:51:31;17.40;99.90
12959;DHT22;6544;51.666;6.634;2023-07-31T09:54:04;17.30;99.90
12959;DHT22;6544;51.666;6.634;2023-07-31T09:56:37;17.40;99.90
12959;DHT22;6544;51.666;6.634;2023-07-31T09:59:06;17.40;99.90
12959;DHT22;6544;51.666;6.634;2023-07-31T10:01:35;17.40;99.90
12959;DHT22;6544;51.666;6.634;2023-07-31T10:04:02;17.40;99.90
12959;DHT22;6544;51.666;6.634;2023-07-31T10:06:30;17.50;99.90
12959;DHT22;6544;51.666;6.634;2023-07-31T10:08:57;17.50;99.90
12959;DHT22;6544;51.666;6.634;2023-07-31T10:11:27;17.40;99.90
12959;DHT22;6544;51.666;6.634;2023-07-31T10:13:57;17.40;99.90
12959;DHT22;6544;51.666;6.634;2023-07-31T10:16:24;17.40;99.90
12959;DHT22;6544;51.666;6.634;2023-07-31T10:18:52;17.40;99.90
12959;DHT22;6544;51.666;6.634;2023-07-31T10:21:20;17.40;99.90
12959;DHT22;6544;51.666;6.634;2023-07-31T10:23:47;17.40;99.90
12959;DHT22;6544;51.666;6.634;2023-07-31T10:26:17;17.50;99.90
12959;DHT22;6544;51.666;6.634;2023-07-31T10:28:47;17.50;99.90
12959;DHT22;6544;51.666;6.634;2023-07-31T10:31:16;17.60;99.90
12959;DHT22;6544;51.666;6.634;2023-07-31T10:33:43;17.40;50.90
12959;DHT22;6544;51.666;6.634;2023-07-31T10:36:13;17.50;24.30
12959;DHT22;6544;51.666;6.634;2023-07-31T10:38:41;17.60;10.70
12959;DHT22;6544;51.666;6.634;2023-07-31T10:41:08;17.60;23.50
12959;DHT22;6544;51.666;6.634;2023-07-31T10:43:36;17.70;1.00
12959;DHT22;6544;51.666;6.634;2023-07-31T10:46:06;17.70;19.00
12959;DHT22;6544;51.666;6.634;2023-07-31T10:48:37;17.70;1.00
12959;DHT22;6544;51.666;6.634;2023-07-31T10:51:07;17.80;99.90
12959;DHT22;6544;51.666;6.634;2023-07-31T10:53:36;17.80;99.90
12959;DHT22;6544;51.666;6.634;2023-07-31T10:56:04;17.90;1.00
12959;DHT22;6544;51.666;6.634;2023-07-31T10:58:31;17.90;19.00
12959;DHT22;6544;51.666;6.634;2023-07-31T11:01:00;17.90;1.00
12959;DHT22;6544;51.666;6.634;2023-07-31T11:03:42;18.00;1.00
12959;DHT22;6544;51.666;6.634;2023-07-31T11:06:10;18.10;99.90
12959;DHT22;6544;51.666;6.634;2023-07-31T11:08:42;18.10;1.00
12959;DHT22;6544;51.666;6.634;2023-07-31T11:11:11;18.10;1.00
12959;DHT22;6544;51.666;6.634;2023-07-31T11:13:43;18.20;1.00
12959;DHT22;6544;51.666;6.634;2023-07-31T11:16:12;18.20;1.00
12959;DHT22;6544;51.666;6.634;2023-07-31T11:18:41;18.20;99.90
12959;DHT22;6544;51.666;6.634;2023-07-31T11:21:08;18.30;99.90
12959;DHT22;6544;51.666;6.634;2023-07-31T11:23:37;18.30;99.90
12959;DHT22;6544;51.666;6.634;2023-07-31T11:26:05;18.40;99.90
12959;DHT22;6544;51.666;6.634;2023-07-31T11:28:33;18.50;99.90
12959;DHT22;6544;51.666;6.634;2023-07-31T11:31:01;18.50;1.00
12959;DHT22;6544;51.666;6.634;2023-07-31T11:33:28;18.50;1.00
12959;DHT22;6544;51.666;6.634;2023-07-31T11:35:57;18.50;1.00
12959;DHT22;6544;51.666;6.634;2023-07-31T11:38:25;18.50;1.00
12959;DHT22;6544;51.666;6.634;2023-07-31T11:40:53;18.50;1.00
12959;DHT22;6544;51.666;6.634;2023-07-31T11:43:21;18.60;1.00
12959;DHT22;6544;51.666;6.634;2023-07-31T11:45:49;18.60;1.00
12959;DHT22;6544;51.666;6.634;2023-07-31T11:48:21;18.70;99.90
12959;DHT22;6544;51.666;6.634;2023-07-31T11:50:49;18.60;99.90
12959;DHT22;6544;51.666;6.634;2023-07-31T11:53:26;18.60;99.90
12959;DHT22;6544;51.666;6.634;2023-07-31T11:55:55;18.60;99.90
12959;DHT22;6544;51.666;6.634;2023-07-31T11:58:24;18.60;99.90
12959;DHT22;6544;51.666;6.634;2023-07-31T12:00:52;18.60;99.90
12959;DHT22;6544;51.666;6.634;2023-07-31T12:03:19;18.60;99.90
12959;DHT22;6544;51.666;6.634;2023-07-31T12:05:47;18.60;63.50
12959;DHT22;6544;51.666;6.634;2023-07-31T12:08:14;18.60;99.90
12959;DHT22;6544;51.666;6.634;2023-07-31T12:10:43;18.60;71.50
12959;DHT22;6544;51.666;6.634;2023-07-31T12:13:12;18.60;14.60
12959;DHT22;6544;51.666;6.634;2023-07-31T12:15:41;18.70;99.90
12959;DHT22;6544;51.666;6.634;2023-07-31T12:18:09;18.60;1.00
12959;DHT22;6544;51.666;6.634;2023-07-31T12:20:41;18.60;11.20
12959;DHT22;6544;51.666;6.634;2023-07-31T12:23:14;18.70;33.60
12959;DHT22;6544;51.666;6.634;2023-07-31T12:25:40;18.80;1.00
12959;DHT22;6544;51.666;6.634;2023-07-31T12:28:09;18.80;1.00
12959;DHT22;6544;51.666;6.634;2023-07-31T12:30:39;18.80;1.00
12959;DHT22;6544;51.666;6.634;2023-07-31T12:33:12;18.90;1.00
12959;DHT22;6544;51.666;6.634;2023-07-31T12:35:41;18.90;1.00
12959;DHT22;6544;51.666;6.634;2023-07-31T12:38:08;18.90;1.00
12959;DHT22;6544;51.666;6.634;2023-07-31T12:40:37;18.90;1.00
12959;DHT22;6544;51.666;6.634;2023-07-31T12:43:08;19.00;1.00
12959;DHT22;6544;51.666;6.634;2023-07-31T12:45:35;19.00;1.00
12959;DHT22;6544;51.666;6.634;2023-07-31T12:48:02;19.00;1.00
12959;DHT22;6544;51.666;6.634;2023-07-31T12:50:29;19.00;1.00
12959;DHT22;6544;51.666;6.634;2023-07-31T12:52:57;19.10;1.00
12959;DHT22;6544;51.666;6.634;2023-07-31T12:55:24;19.10;1.00
12959;DHT22;6544;51.666;6.634;2023-07-31T12:57:51;19.10;1.00
12959;DHT22;6544;51.666;6.634;2023-07-31T13:00:19;19.20;1.00
12959;DHT22;6544;51.666;6.634;2023-07-31T13:02:46;19.20;1.00
12959;DHT22;6544;51.666;6.634;2023-07-31T13:05:13;19.20;1.00
12959;DHT22;6544;51.666;6.634;2023-07-31T13:07:41;19.20;1.00
12959;DHT22;6544;51.666;6.634;2023-07-31T13:10:08;19.20;1.00
12959;DHT22;6544;51.666;6.634;2023-07-31T13:12:35;19.20;1.00
12959;DHT22;6544;51.666;6.634;2023-07-31T13:15:02;19.10;1.00
12959;DHT22;6544;51.666;6.634;2023-07-31T13:17:31;19.00;1.00
12959;DHT22;6544;51.666;6.634;2023-07-31T13:19:58;19.10;1.00
12959;DHT22;6544;51.666;6.634;2023-07-31T13:22:26;19.10;1.00
12959;DHT22;6544;51.666;6.634;2023-07-31T13:24:53;19.20;1.00
12959;DHT22;6544;51.666;6.634;2023-07-31T13:27:20;19.20;1.00
12959;DHT22;6544;51.666;6.634;2023-07-31T13:29:47;19.20;1.00
12959;DHT22;6544;51.666;6.634;2023-07-31T13:32:15;19.20;1.00
12959;DHT22;6544;51.666;6.634;2023-07-31T13:34:43;19.30;1.00
12959;DHT22;6544;51.666;6.634;2023-07-31T13:37:11;19.20;1.00
12959;DHT22;6544;51.666;6.634;2023-07-31T13:39:38;19.20;1.00
12959;DHT22;6544;51.666;6.634;2023-07-31T13:42:06;19.20;1.00
12959;DHT22;6544;51.666;6.634;2023-07-31T13:44:33;19.20;1.00
12959;DHT22;6544;51.666;6.634;2023-07-31T13:47:01;19.20;1.00
12959;DHT22;6544;51.666;6.634;2023-07-31T13:49:28;19.20;1.00
12959;DHT22;6544;51.666;6.634;2023-07-31T13:51:57;19.20;1.00
12959;DHT22;6544;51.666;6.634;2023-07-31T13:54:25;19.20;1.00
12959;DHT22;6544;51.666;6.634;2023-07-31T13:56:52;19.10;1.00
12959;DHT22;6544;51.666;6.634;2023-07-31T13:59:19;19.10;1.00
12959;DHT22;6544;51.666;6.634;2023-07-31T14:01:46;19.10;1.00
12959;DHT22;6544;51.666;6.634;2023-07-31T14:04:13;19.20;1.00
12959;DHT22;6544;51.666;6.634;2023-07-31T14:06:40;19.20;1.00
12959;DHT22;6544;51.666;6.634;2023-07-31T14:09:08;19.20;1.00
12959;DHT22;6544;51.666;6.634;2023-07-31T14:11:35;19.30;1.00
12959;DHT22;6544;51.666;6.634;2023-07-31T14:14:03;19.40;1.00
12959;DHT22;6544;51.666;6.634;2023-07-31T14:16:30;19.50;1.00
12959;DHT22;6544;51.666;6.634;2023-07-31T14:18:57;19.50;99.90
12959;DHT22;6544;51.666;6.634;2023-07-31T14:21:24;19.50;99.90
12959;DHT22;6544;51.666;6.634;2023-07-31T14:23:52;19.60;99.90
12959;DHT22;6544;51.666;6.634;2023-07-31T14:26:20;19.60;99.90
12959;DHT22;6544;51.666;6.634;2023-07-31T14:28:47;19.60;99.90
12959;DHT22;6544;51.666;6.634;2023-07-31T14:31:14;19.60;99.90
12959;DHT22;6544;51.666;6.634;2023-07-31T14:33:41;19.60;99.90
12959;DHT22;6544;51.666;6.634;2023-07-31T14:36:08;19.60;99.90
12959;DHT22;6544;51.666;6.634;2023-07-31T14:38:35;19.60;99.90
12959;DHT22;6544;51.666;6.634;2023-07-31T14:41:02;19.70;99.90
12959;DHT22;6544;51.666;6.634;2023-07-31T14:43:30;19.70;99.90
12959;DHT22;6544;51.666;6.634;2023-07-31T14:45:58;19.80;99.90
12959;DHT22;6544;51.666;6.634;2023-07-31T14:48:25;19.80;99.90
12959;DHT22;6544;51.666;6.634;2023-07-31T14:50:52;19.80;99.90
12959;DHT22;6544;51.666;6.634;2023-07-31T14:53:19;19.70;99.90
12959;DHT22;6544;51.666;6.634;2023-07-31T14:55:46;19.70;99.90
12959;DHT22;6544;51.666;6.634;2023-07-31T14:58:13;19.70;99.90
12959;DHT22;6544;51.666;6.634;2023-07-31T15:00:41;19.50;1.00
12959;DHT22;6544;51.666;6.634;2023-07-31T15:03:08;19.40;1.00
12959;DHT22;6544;51.666;6.634;2023-07-31T15:05:38;19.30;29.40
12959;DHT22;6544;51.666;6.634;2023-07-31T15:08:07;19.10;99.90
12959;DHT22;6544;51.666;6.634;2023-07-31T15:10:34;19.00;1.00
12959;DHT22;6544;51.666;6.634;2023-07-31T15:13:03;18.90;99.90
12959;DHT22;6544;51.666;6.634;2023-07-31T15:15:30;18.90;1.00
12959;DHT22;6544;51.666;6.634;2023-07-31T15:18:00;18.90;1.00
12959;DHT22;6544;51.666;6.634;2023-07-31T15:20:27;19.00;99.90
12959;DHT22;6544;51.666;6.634;2023-07-31T15:22:55;19.00;1.00
12959;DHT22;6544;51.666;6.634;2023-07-31T15:25:23;18.90;99.90
12959;DHT22;6544;51.666;6.634;2023-07-31T15:27:50;18.80;99.90
12959;DHT22;6544;51.666;6.634;2023-07-31T15:30:18;18.90;1.00
12959;DHT22;6544;51.666;6.634;2023-07-31T15:32:48;18.90;99.10
12959;DHT22;6544;51.666;6.634;2023-07-31T15:35:17;18.80;1.00
12959;DHT22;6544;51.666;6.634;2023-07-31T15:37:44;18.80;1.00
12959;DHT22;6544;51.666;6.634;2023-07-31T15:40:11;18.70;99.90
12959;DHT22;6544;51.666;6.634;2023-07-31T15:42:39;18.60;1.00
12959;DHT22;6544;51.666;6.634;2023-07-31T15:45:08;18.60;1.00
12959;DHT22;6544;51.666;6.634;2023-07-31T15:47:36;18.60;56.70
12959;DHT22;6544;51.666;6.634;2023-07-31T15:50:03;18.60;1.00
12959;DHT22;6544;51.666;6.634;2023-07-31T15:52:32;18.60;99.90
12959;DHT22;6544;51.666;6.634;2023-07-31T15:54:59;18.60;99.90
12959;DHT22;6544;51.666;6.634;2023-07-31T15:57:26;18.60;1.00